Time;durP1;ratioP1;P1;durP2;ratioP2;P2;SDS_P1;SDS_P2;PMS_P1;PMS_P2;Temp;Humidity;BMP_temperature;BMP_pressure;BME280_temperature;BME280_humidity;BME280_pressure;Samples;Min_cycle;Max_cycle;Signal;HPM_P1;HPM_P2
2024/02/10 00:00:36;;;;;;;7.03;5.63;;;11.50;99.90;;;;;;5028546;28;20433;-68
2024/02/10 00:03:02;;;;;;;10.67;6.30;;;11.50;99.90;;;;;;5031480;28;20441;-66
2024/02/10 00:05:28;;;;;;;7.47;5.57;;;11.60;99.90;;;;;;5030746;28;20197;-68
2024/02/10 00:07:55;;;;;;;7.77;5.50;;;11.60;99.90;;;;;;5030039;28;20182;-70
2024/02/10 00:10:25;;;;;;;7.67;6.10;;;11.50;99.90;;;;;;5029797;28;20428;-69
2024/02/10 00:12:54;;;;;;;6.17;5.10;;;11.50;99.90;;;;;;5030359;28;20432;-69
2024/02/10 00:15:21;;;;;;;7.30;6.60;;;11.50;99.90;;;;;;5026867;28;20437;-71
2024/02/10 00:17:48;;;;;;;9.93;5.77;;;11.50;99.90;;;;;;5026980;28;20445;-63
2024/02/10 00:20:15;;;;;;;6.57;5.63;;;11.60;99.90;;;;;;5030865;28;20441;-70
2024/02/10 00:22:47;;;;;;;7.90;5.50;;;11.60;99.90;;;;;;5030520;28;20529;-70
2024/02/10 00:25:14;;;;;;;8.87;5.30;;;11.50;99.90;;;;;;5033467;28;20462;-68
2024/02/10 00:27:40;;;;;;;8.00;5.87;;;11.50;99.90;;;;;;5027531;28;20435;-67
2024/02/10 00:30:08;;;;;;;6.10;5.27;;;11.50;99.90;;;;;;5031204;28;20436;-68
2024/02/10 00:32:37;;;;;;;6.20;5.40;;;11.50;99.90;;;;;;5029175;28;20192;-68
2024/02/10 00:35:04;;;;;;;6.57;5.67;;;11.40;99.90;;;;;;5029906;28;20440;-69
2024/02/10 00:37:30;;;;;;;6.43;5.83;;;11.40;99.90;;;;;;5028689;28;20847;-68
2024/02/10 00:39:55;;;;;;;8.10;5.27;;;11.50;99.90;;;;;;5031642;28;20424;-66
2024/02/10 00:42:24;;;;;;;6.87;5.40;;;11.40;99.90;;;;;;5028914;28;20206;-64
2024/02/10 00:44:51;;;;;;;6.00;5.43;;;11.40;99.90;;;;;;5029318;28;20219;-68
2024/02/10 00:47:17;;;;;;;8.93;5.63;;;11.30;99.90;;;;;;5028997;28;20458;-68
2024/02/10 00:49:43;;;;;;;6.67;6.07;;;11.20;99.90;;;;;;5030374;28;20573;-68
2024/02/10 00:52:09;;;;;;;6.53;5.70;;;11.30;99.90;;;;;;5030072;28;20424;-67
2024/02/10 00:54:37;;;;;;;5.67;5.07;;;11.20;99.90;;;;;;5028997;28;20421;-69
2024/02/10 00:57:13;;;;;;;7.40;5.73;;;11.20;99.90;;;;;;5029559;28;20546;-67
2024/02/10 00:59:41;;;;;;;5.37;4.80;;;11.20;99.90;;;;;;5029381;28;20433;-68
2024/02/10 01:02:17;;;;;;;6.50;5.80;;;11.10;99.90;;;;;;5029534;28;20475;-67
2024/02/10 01:04:49;;;;;;;4.87;4.47;;;11.20;99.90;;;;;;5031836;28;20503;-67
2024/02/10 01:07:16;;;;;;;5.90;4.83;;;11.20;99.90;;;;;;5015064;28;21706;-71
2024/02/10 01:09:46;;;;;;;5.97;4.83;;;11.20;99.90;;;;;;5030805;28;20536;-69
2024/02/10 01:12:16;;;;;;;3.87;3.53;;;11.30;99.90;;;;;;5031406;28;20492;-65
2024/02/10 01:14:42;;;;;;;4.10;3.27;;;11.30;99.90;;;;;;5030560;28;20428;-69
2024/02/10 01:17:13;;;;;;;3.43;2.63;;;11.30;99.90;;;;;;5029647;28;20501;-69
2024/02/10 01:19:51;;;;;;;3.80;2.90;;;11.40;99.90;;;;;;5030939;28;20425;-66
2024/02/10 01:22:22;;;;;;;3.10;2.80;;;11.40;99.90;;;;;;5030605;28;20468;-69
2024/02/10 01:24:53;;;;;;;2.77;2.33;;;11.40;99.90;;;;;;5031681;28;20513;-69
2024/02/10 01:27:26;;;;;;;2.37;2.10;;;11.40;99.90;;;;;;5031361;28;20428;-68
2024/02/10 01:29:55;;;;;;;3.00;2.00;;;11.30;99.90;;;;;;5029822;28;21316;-67
2024/02/10 01:32:23;;;;;;;3.03;2.13;;;11.40;99.90;;;;;;5028612;28;20440;-69
2024/02/10 01:34:49;;;;;;;3.30;2.37;;;11.30;99.90;;;;;;5030971;28;20433;-67
2024/02/10 01:37:18;;;;;;;2.30;1.90;;;11.30;99.90;;;;;;5031025;28;20428;-70
2024/02/10 01:39:48;;;;;;;3.97;2.20;;;11.30;99.90;;;;;;5030754;28;20441;-64
2024/02/10 01:42:15;;;;;;;3.97;2.13;;;11.30;99.90;;;;;;5031023;28;20460;-68
2024/02/10 01:44:43;;;;;;;2.83;2.10;;;11.30;99.90;;;;;;5030321;28;20990;-65
2024/02/10 01:47:15;;;;;;;2.80;2.30;;;11.30;99.90;;;;;;5031191;28;20443;-69
2024/02/10 01:49:41;;;;;;;3.37;2.33;;;11.30;99.90;;;;;;5015919;28;20435;-65
2024/02/10 01:52:08;;;;;;;3.80;3.00;;;11.30;99.90;;;;;;5030891;28;21018;-69
2024/02/10 01:54:36;;;;;;;4.07;2.70;;;11.20;99.90;;;;;;5030270;28;20425;-68
2024/02/10 01:57:07;;;;;;;3.43;3.00;;;11.20;99.90;;;;;;5030517;28;20979;-68
2024/02/10 01:59:36;;;;;;;4.43;2.50;;;11.20;99.90;;;;;;5029984;28;20436;-69
2024/02/10 02:02:05;;;;;;;3.37;3.07;;;11.20;99.90;;;;;;5030682;28;20469;-64
2024/02/10 02:04:35;;;;;;;2.93;2.50;;;11.10;99.90;;;;;;5028303;28;20439;-64
2024/02/10 02:07:08;;;;;;;3.50;2.77;;;11.10;99.90;;;;;;5028820;28;20469;-68
2024/02/10 02:09:35;;;;;;;4.20;3.00;;;11.10;99.90;;;;;;5030202;28;20882;-68
2024/02/10 02:12:07;;;;;;;3.03;2.70;;;11.10;99.90;;;;;;5030378;28;20462;-71
2024/02/10 02:14:37;;;;;;;4.27;2.97;;;11.10;99.90;;;;;;5030366;28;21467;-66
2024/02/10 02:17:06;;;;;;;3.57;3.27;;;11.00;99.90;;;;;;5029840;28;20556;-67
2024/02/10 02:19:33;;;;;;;6.83;2.90;;;11.00;99.90;;;;;;5043422;28;20974;-68
2024/02/10 02:22:01;;;;;;;2.90;2.70;;;11.00;99.90;;;;;;5028818;28;20774;-66
2024/02/10 02:24:30;;;;;;;3.17;2.87;;;11.00;99.90;;;;;;5028086;28;21005;-69
2024/02/10 02:26:56;;;;;;;5.33;4.93;;;10.90;99.90;;;;;;5027533;28;20425;-68
2024/02/10 02:29:22;;;;;;;3.97;2.90;;;10.90;99.90;;;;;;5028036;28;21025;-65
2024/02/10 02:31:48;;;;;;;4.13;2.90;;;10.90;99.90;;;;;;5028909;28;20512;-67
2024/02/10 02:34:14;;;;;;;5.37;3.40;;;10.90;99.90;;;;;;5029096;28;20183;-69
2024/02/10 02:36:41;;;;;;;3.67;3.23;;;10.90;99.90;;;;;;5030183;28;20454;-66
2024/02/10 02:39:08;;;;;;;4.00;3.00;;;10.90;99.90;;;;;;5029943;28;20198;-68
2024/02/10 02:41:33;;;;;;;3.00;2.80;;;10.90;99.90;;;;;;5029026;28;20461;-68
2024/02/10 02:43:59;;;;;;;4.00;3.00;;;10.80;99.90;;;;;;5030692;28;20948;-65
2024/02/10 02:46:25;;;;;;;3.30;3.00;;;10.80;99.90;;;;;;5029655;28;20252;-67
2024/02/10 02:48:54;;;;;;;3.27;2.97;;;10.80;99.90;;;;;;5029504;28;20743;-67
2024/02/10 02:51:22;;;;;;;2.90;2.60;;;10.80;99.90;;;;;;5030034;28;20196;-69
2024/02/10 02:53:48;;;;;;;3.30;3.00;;;10.80;99.90;;;;;;5027465;28;20496;-66
2024/02/10 02:56:15;;;;;;;5.70;2.43;;;10.80;99.90;;;;;;5029100;28;21197;-69
2024/02/10 02:58:41;;;;;;;3.63;3.23;;;10.70;99.90;;;;;;5030296;28;20182;-69
2024/02/10 03:01:07;;;;;;;3.60;2.70;;;10.80;99.90;;;;;;5029061;28;21009;-69
2024/02/10 03:03:33;;;;;;;2.93;2.73;;;10.80;99.90;;;;;;5030748;28;21509;-70
2024/02/10 03:05:59;;;;;;;3.00;2.80;;;10.70;99.90;;;;;;5030190;28;20439;-67
2024/02/10 03:08:27;;;;;;;2.77;2.53;;;10.80;99.90;;;;;;5028134;28;20194;-67
2024/02/10 03:10:53;;;;;;;3.27;2.60;;;10.80;99.90;;;;;;5028066;28;20432;-68
2024/02/10 03:13:18;;;;;;;3.03;2.83;;;10.70;99.90;;;;;;5031133;28;20440;-66
2024/02/10 03:15:46;;;;;;;3.17;2.87;;;10.70;99.90;;;;;;5030455;28;20194;-68
2024/02/10 03:18:13;;;;;;;3.23;2.93;;;10.70;99.90;;;;;;5030266;28;20190;-66
2024/02/10 03:20:39;;;;;;;2.73;2.53;;;10.70;99.90;;;;;;5030090;28;20432;-71
2024/02/10 03:23:07;;;;;;;4.20;2.90;;;10.70;99.90;;;;;;5032951;28;20428;-63
2024/02/10 03:25:33;;;;;;;4.07;2.83;;;10.70;99.90;;;;;;5033673;28;20272;-69
2024/02/10 03:28:02;;;;;;;3.20;2.60;;;10.70;99.90;;;;;;5032176;28;20563;-67
2024/02/10 03:30:28;;;;;;;3.33;2.63;;;10.70;99.90;;;;;;5033424;28;20572;-70
2024/02/10 03:32:54;;;;;;;4.13;2.73;;;10.70;99.90;;;;;;5033978;28;20527;-68
2024/02/10 03:35:21;;;;;;;2.80;2.60;;;10.70;99.90;;;;;;5033703;28;20233;-68
2024/02/10 03:37:47;;;;;;;2.80;2.40;;;10.70;99.90;;;;;;5033601;28;20424;-66
2024/02/10 03:40:18;;;;;;;3.47;3.17;;;10.70;99.90;;;;;;5033808;28;20420;-72
2024/02/10 03:42:44;;;;;;;3.40;2.70;;;10.70;99.90;;;;;;5030517;28;20249;-67
2024/02/10 03:45:10;;;;;;;2.97;2.77;;;10.60;99.90;;;;;;5031536;28;20437;-66
2024/02/10 03:47:37;;;;;;;3.70;3.30;;;10.70;99.90;;;;;;5033536;28;20820;-67
2024/02/10 03:50:04;;;;;;;3.27;2.90;;;10.70;99.90;;;;;;5032626;28;20459;-66
2024/02/10 03:52:30;;;;;;;3.17;2.87;;;10.70;99.90;;;;;;5033551;28;20437;-69
2024/02/10 03:54:58;;;;;;;3.57;3.00;;;10.70;99.90;;;;;;5033665;28;20489;-67
2024/02/10 03:57:24;;;;;;;2.93;2.53;;;10.70;99.90;;;;;;5030345;28;20935;-67
2024/02/10 03:59:50;;;;;;;3.90;2.73;;;10.60;99.90;;;;;;5033099;28;20424;-68
2024/02/10 04:02:18;;;;;;;3.53;3.23;;;10.70;99.90;;;;;;5033584;28;20911;-64
2024/02/10 04:04:44;;;;;;;2.87;2.53;;;10.70;99.90;;;;;;5033155;28;20596;-68
2024/02/10 04:07:12;;;;;;;2.63;2.40;;;10.70;99.90;;;;;;5033169;28;21225;-68
2024/02/10 04:09:38;;;;;;;3.20;2.90;;;10.70;99.90;;;;;;5033437;28;21012;-67
2024/02/10 04:12:04;;;;;;;3.10;2.60;;;10.70;99.90;;;;;;5032033;28;20431;-65
2024/02/10 04:14:29;;;;;;;3.00;2.70;;;10.70;99.90;;;;;;5032884;28;20233;-63
2024/02/10 04:16:55;;;;;;;3.30;3.00;;;10.70;99.90;;;;;;5032876;28;21225;-66
2024/02/10 04:19:21;;;;;;;4.90;3.20;;;10.70;99.90;;;;;;5033071;28;20189;-68
2024/02/10 04:21:52;;;;;;;3.20;2.67;;;10.70;99.90;;;;;;5033231;28;20214;-66
2024/02/10 04:24:19;;;;;;;4.70;2.47;;;10.70;99.90;;;;;;5032767;28;20255;-70
2024/02/10 04:26:46;;;;;;;3.70;3.10;;;10.70;99.90;;;;;;5031219;28;20452;-66
2024/02/10 04:29:14;;;;;;;3.37;3.07;;;10.60;99.90;;;;;;5029826;28;20429;-67
2024/02/10 04:31:40;;;;;;;2.63;2.43;;;10.60;99.90;;;;;;5033012;28;20441;-66
2024/02/10 04:34:06;;;;;;;3.67;2.90;;;10.60;99.90;;;;;;5032074;28;20435;-72
2024/02/10 04:36:35;;;;;;;3.40;2.90;;;10.40;99.90;;;;;;5032298;28;20421;-66
2024/02/10 04:39:03;;;;;;;2.70;2.50;;;10.40;99.90;;;;;;5032480;28;20182;-67
2024/02/10 04:41:32;;;;;;;2.73;2.50;;;10.50;99.90;;;;;;5031489;28;20500;-69
2024/02/10 04:43:58;;;;;;;3.27;2.97;;;10.50;99.90;;;;;;5032368;28;20425;-67
2024/02/10 04:46:23;;;;;;;2.90;2.70;;;10.50;99.90;;;;;;5031496;28;20501;-69
2024/02/10 04:48:53;;;;;;;3.20;2.90;;;10.40;99.90;;;;;;5032901;28;20215;-69
2024/02/10 04:51:23;;;;;;;3.30;3.00;;;10.40;99.90;;;;;;5031357;28;20191;-64
2024/02/10 04:53:49;;;;;;;2.80;2.60;;;10.40;99.90;;;;;;5029583;28;20535;-69
2024/02/10 04:56:18;;;;;;;3.27;2.90;;;10.40;99.90;;;;;;5029244;28;20519;-68
2024/02/10 04:58:46;;;;;;;2.97;2.67;;;10.40;99.90;;;;;;5031618;28;20195;-67
2024/02/10 05:01:15;;;;;;;4.23;3.10;;;10.40;99.90;;;;;;5030601;28;21344;-70
2024/02/10 05:03:40;;;;;;;2.70;2.50;;;10.30;99.90;;;;;;5031358;28;20437;-70
2024/02/10 05:06:07;;;;;;;3.30;3.00;;;10.30;99.90;;;;;;5029885;28;20947;-68
2024/02/10 05:08:34;;;;;;;3.30;3.00;;;10.30;99.90;;;;;;5030858;28;20194;-69
2024/02/10 05:11:00;;;;;;;4.10;3.70;;;10.30;99.90;;;;;;5031496;28;20429;-65
2024/02/10 05:13:28;;;;;;;3.20;2.90;;;10.30;99.90;;;;;;5031778;28;20442;-67
2024/02/10 05:15:54;;;;;;;2.70;2.50;;;10.20;99.90;;;;;;5030986;28;20432;-69
2024/02/10 05:18:19;;;;;;;3.63;3.27;;;10.30;99.90;;;;;;5031113;28;20444;-70
2024/02/10 05:20:45;;;;;;;4.63;3.90;;;10.30;99.90;;;;;;5031672;28;20247;-67
2024/02/10 05:23:14;;;;;;;3.83;3.03;;;10.20;99.90;;;;;;5031391;28;20225;-68
2024/02/10 05:25:40;;;;;;;3.67;3.20;;;10.20;99.90;;;;;;5031732;28;20182;-65
2024/02/10 05:28:07;;;;;;;3.10;2.80;;;10.20;99.90;;;;;;5029600;28;20445;-67
2024/02/10 05:30:32;;;;;;;3.30;2.80;;;10.20;99.90;;;;;;5029991;28;20239;-68
2024/02/10 05:33:02;;;;;;;2.83;2.63;;;10.30;99.90;;;;;;5029871;28;20433;-65
2024/02/10 05:35:29;;;;;;;3.63;2.83;;;10.20;99.90;;;;;;5031011;28;20903;-66
2024/02/10 05:37:57;;;;;;;3.87;3.17;;;10.20;99.90;;;;;;5031151;28;21006;-67
2024/02/10 05:40:27;;;;;;;3.47;3.13;;;10.20;99.90;;;;;;5030053;28;20444;-67
2024/02/10 05:42:56;;;;;;;3.70;3.40;;;10.20;99.90;;;;;;5031566;28;20587;-70
2024/02/10 05:45:22;;;;;;;3.30;3.00;;;10.20;99.90;;;;;;5029820;28;20442;-70
2024/02/10 05:47:50;;;;;;;3.10;2.87;;;10.20;99.90;;;;;;5030838;28;20436;-66
2024/02/10 05:50:22;;;;;;;3.53;2.93;;;10.20;99.90;;;;;;5030283;28;20208;-66
2024/02/10 05:52:52;;;;;;;4.37;3.57;;;10.20;99.90;;;;;;5031807;28;20918;-68
2024/02/10 05:55:20;;;;;;;4.50;3.60;;;10.20;99.90;;;;;;5030919;28;20424;-66
2024/02/10 05:57:49;;;;;;;4.63;3.30;;;10.10;99.90;;;;;;5030721;28;20420;-68
2024/02/10 06:00:15;;;;;;;3.70;3.30;;;10.10;99.90;;;;;;5029677;28;20458;-67
2024/02/10 06:02:41;;;;;;;3.40;3.10;;;10.10;99.90;;;;;;5029313;28;20499;-64
2024/02/10 06:05:14;;;;;;;3.57;3.27;;;10.10;99.90;;;;;;5013275;28;21017;-67
2024/02/10 06:07:41;;;;;;;3.50;3.20;;;10.00;99.90;;;;;;5030294;28;20535;-66
2024/02/10 06:10:15;;;;;;;3.40;3.10;;;10.00;99.90;;;;;;5031103;28;20648;-66
2024/02/10 06:12:51;;;;;;;4.40;3.37;;;10.10;99.90;;;;;;5030753;28;21111;-67
2024/02/10 06:15:18;;;;;;;3.43;3.13;;;10.00;99.90;;;;;;5030064;28;20438;-70
2024/02/10 06:17:44;;;;;;;4.00;3.07;;;10.00;99.90;;;;;;5028931;28;20437;-66
2024/02/10 06:20:14;;;;;;;3.87;3.47;;;10.10;99.90;;;;;;5029905;28;20436;-68
2024/02/10 06:22:41;;;;;;;3.73;3.37;;;10.10;99.90;;;;;;5030625;28;20464;-70
2024/02/10 06:25:11;;;;;;;3.50;3.20;;;10.10;99.90;;;;;;5031190;28;20431;-68
2024/02/10 06:27:40;;;;;;;4.97;3.60;;;10.10;99.90;;;;;;5026952;28;20445;-64
2024/02/10 06:30:08;;;;;;;5.07;3.90;;;10.10;99.90;;;;;;5029584;28;20453;-66
2024/02/10 06:32:36;;;;;;;4.10;3.30;;;10.00;99.90;;;;;;5028395;28;20681;-67
2024/02/10 06:35:02;;;;;;;3.53;3.23;;;9.90;99.90;;;;;;5029498;28;20852;-71
2024/02/10 06:37:32;;;;;;;3.90;3.50;;;9.80;99.90;;;;;;5029470;28;20424;-65
2024/02/10 06:39:58;;;;;;;4.93;3.63;;;9.80;99.90;;;;;;5028230;28;20444;-69
2024/02/10 06:42:25;;;;;;;4.63;3.43;;;9.70;99.90;;;;;;5026278;28;20521;-69
2024/02/10 06:44:51;;;;;;;6.40;3.33;;;9.70;99.90;;;;;;5030069;28;20521;-69
2024/02/10 06:47:17;;;;;;;4.03;3.60;;;9.70;99.90;;;;;;5025652;28;21031;-69
2024/02/10 06:49:43;;;;;;;4.23;3.57;;;9.70;99.90;;;;;;5028273;28;20424;-69
2024/02/10 06:52:09;;;;;;;4.10;3.13;;;9.70;99.90;;;;;;5029951;28;20194;-68
2024/02/10 06:54:37;;;;;;;4.27;3.87;;;9.70;99.90;;;;;;5028976;28;20679;-68
2024/02/10 06:57:03;;;;;;;3.80;3.30;;;9.70;99.90;;;;;;5029333;28;20210;-65
2024/02/10 06:59:29;;;;;;;4.07;3.73;;;9.70;99.90;;;;;;5033927;28;20429;-68
2024/02/10 07:01:54;;;;;;;4.90;3.70;;;9.70;99.90;;;;;;5033789;28;20981;-64
2024/02/10 07:04:22;;;;;;;3.83;3.47;;;9.70;99.90;;;;;;5033862;28;20596;-66
2024/02/10 07:06:53;;;;;;;5.30;4.30;;;9.70;99.90;;;;;;5033799;28;20193;-65
2024/02/10 07:09:21;;;;;;;4.17;3.77;;;9.60;99.90;;;;;;5033647;28;20436;-66
2024/02/10 07:11:48;;;;;;;4.07;3.67;;;9.60;99.90;;;;;;5033992;28;20417;-68
2024/02/10 07:14:14;;;;;;;5.17;4.30;;;9.60;99.90;;;;;;5033853;28;20955;-70
2024/02/10 07:16:39;;;;;;;5.03;4.57;;;9.70;99.90;;;;;;5032125;28;21072;-67
2024/02/10 07:19:06;;;;;;;4.93;4.43;;;9.70;99.90;;;;;;5034027;28;20428;-66
2024/02/10 07:21:33;;;;;;;6.23;3.93;;;9.60;99.90;;;;;;5032840;28;20278;-68
2024/02/10 07:24:05;;;;;;;5.30;3.97;;;9.60;99.90;;;;;;5034850;28;20475;-65
2024/02/10 07:26:32;;;;;;;5.80;4.20;;;9.60;99.90;;;;;;5032190;28;20441;-69
2024/02/10 07:28:59;;;;;;;5.27;4.50;;;9.70;99.90;;;;;;5033055;28;20456;-70
2024/02/10 07:31:26;;;;;;;4.93;4.47;;;9.70;99.90;;;;;;5031647;28;20462;-67
2024/02/10 07:33:58;;;;;;;6.87;4.40;;;9.70;99.90;;;;;;5034352;28;20500;-67
2024/02/10 07:36:35;;;;;;;6.07;4.20;;;9.70;99.90;;;;;;5033032;28;20784;-68
2024/02/10 07:39:07;;;;;;;4.63;4.17;;;9.70;99.90;;;;;;5033952;28;20471;-69
2024/02/10 07:41:39;;;;;;;6.00;4.43;;;9.80;99.90;;;;;;5031886;28;20480;-68
2024/02/10 07:44:12;;;;;;;5.50;4.40;;;9.80;99.90;;;;;;5032561;28;20440;-67
2024/02/10 07:46:38;;;;;;;5.03;4.53;;;9.80;99.90;;;;;;5032787;28;20440;-67
2024/02/10 07:49:07;;;;;;;4.57;4.10;;;9.80;99.90;;;;;;5032905;28;20926;-66
2024/02/10 07:51:33;;;;;;;4.30;3.90;;;9.90;99.90;;;;;;5032244;28;20734;-67
2024/02/10 07:53:59;;;;;;;4.13;3.73;;;9.90;99.90;;;;;;5032368;28;20468;-64
2024/02/10 07:56:28;;;;;;;4.37;3.97;;;10.00;99.90;;;;;;5028932;28;20528;-66
2024/02/10 07:59:03;;;;;;;4.40;4.00;;;10.00;99.90;;;;;;5032475;28;20429;-67
2024/02/10 08:01:29;;;;;;;4.43;3.80;;;10.10;99.90;;;;;;5031294;28;20472;-68
2024/02/10 08:03:56;;;;;;;5.03;4.53;;;10.20;99.90;;;;;;5033689;28;20443;-68
2024/02/10 08:06:26;;;;;;;4.43;4.03;;;10.30;99.90;;;;;;5032344;28;20478;-69
2024/02/10 08:08:57;;;;;;;4.10;3.70;;;10.30;99.90;;;;;;5031295;28;20429;-66
2024/02/10 08:11:29;;;;;;;3.80;3.50;;;10.40;99.90;;;;;;5046617;28;20439;-67
2024/02/10 08:13:56;;;;;;;4.07;3.67;;;10.40;99.90;;;;;;5032161;28;21179;-65
2024/02/10 08:16:25;;;;;;;4.40;4.00;;;10.50;99.90;;;;;;5032132;28;20428;-68
2024/02/10 08:18:51;;;;;;;4.10;3.60;;;10.60;99.90;;;;;;5031887;28;20432;-68
2024/02/10 08:21:30;;;;;;;3.73;3.43;;;10.70;99.90;;;;;;5032870;28;21300;-71
2024/02/10 08:23:59;;;;;;;3.93;3.50;;;10.80;99.90;;;;;;5030280;28;20186;-67
2024/02/10 08:26:28;;;;;;;5.60;3.63;;;10.90;99.90;;;;;;5031368;28;20564;-64
2024/02/10 08:28:58;;;;;;;3.30;3.00;;;11.10;99.90;;;;;;5030776;28;20924;-66
2024/02/10 08:31:24;;;;;;;3.30;2.80;;;11.30;99.90;;;;;;5032276;28;20651;-67
2024/02/10 08:33:50;;;;;;;4.23;3.00;;;11.50;99.90;;;;;;5031614;28;20756;-67
2024/02/10 08:36:19;;;;;;;3.70;3.10;;;11.70;99.90;;;;;;5030716;28;20339;-68
2024/02/10 08:38:45;;;;;;;3.77;2.70;;;11.80;99.90;;;;;;5029765;28;20469;-69
2024/02/10 08:41:11;;;;;;;2.90;2.57;;;12.00;99.90;;;;;;5029445;28;20472;-68
2024/02/10 08:43:38;;;;;;;2.90;2.60;;;12.00;99.90;;;;;;5029226;28;20416;-67
2024/02/10 08:46:07;;;;;;;3.13;2.30;;;12.10;99.90;;;;;;5029578;28;20649;-65
2024/02/10 08:48:32;;;;;;;4.93;2.70;;;12.30;99.90;;;;;;5030244;28;21094;-64
2024/02/10 08:50:58;;;;;;;5.20;2.73;;;12.30;99.90;;;;;;5030204;28;20428;-70
2024/02/10 08:53:24;;;;;;;4.93;2.90;;;12.30;99.90;;;;;;5030717;28;20208;-67
2024/02/10 08:55:50;;;;;;;4.93;2.27;;;12.40;99.90;;;;;;5030970;28;20289;-69
2024/02/10 08:58:17;;;;;;;2.90;2.60;;;12.30;99.90;;;;;;5031226;28;20189;-70
2024/02/10 09:00:46;;;;;;;2.67;2.47;;;12.40;99.90;;;;;;5031012;28;21319;-66
2024/02/10 09:03:15;;;;;;;4.37;2.30;;;12.50;99.90;;;;;;5032205;28;20528;-71
2024/02/10 09:05:41;;;;;;;2.70;2.50;;;12.50;99.90;;;;;;5030961;28;20417;-67
2024/02/10 09:08:07;;;;;;;2.70;2.50;;;12.60;99.90;;;;;;5032550;28;20519;-66
2024/02/10 09:10:33;;;;;;;3.13;2.60;;;12.70;99.90;;;;;;5031949;28;20637;-64
2024/02/10 09:12:59;;;;;;;2.40;2.20;;;12.80;99.90;;;;;;5031389;28;20910;-65
2024/02/10 09:15:26;;;;;;;2.20;2.00;;;13.00;99.90;;;;;;5031735;28;20190;-69
2024/02/10 09:17:52;;;;;;;2.50;2.30;;;13.20;99.90;;;;;;5030314;28;20429;-68
2024/02/10 09:20:18;;;;;;;2.20;2.00;;;13.20;99.90;;;;;;5031127;28;20424;-69
2024/02/10 09:22:43;;;;;;;2.60;2.30;;;13.40;99.90;;;;;;5030833;28;20210;-67
2024/02/10 09:25:10;;;;;;;2.50;2.30;;;13.50;99.90;;;;;;5031759;28;20443;-67
2024/02/10 09:27:36;;;;;;;3.37;2.00;;;13.50;99.90;;;;;;5029506;28;20363;-66
2024/02/10 09:30:02;;;;;;;2.27;1.97;;;13.70;99.90;;;;;;5030041;28;20871;-68
2024/02/10 09:32:28;;;;;;;2.43;2.23;;;14.00;99.90;;;;;;5031209;28;20181;-70
2024/02/10 09:34:53;;;;;;;3.33;2.37;;;13.90;99.90;;;;;;5030891;28;20987;-65
2024/02/10 09:37:19;;;;;;;2.70;1.77;;;13.70;99.90;;;;;;5030043;28;20296;-69
2024/02/10 09:39:46;;;;;;;2.43;2.20;;;13.80;99.90;;;;;;5029426;28;20214;-68
2024/02/10 09:42:21;;;;;;;2.10;1.97;;;13.80;99.90;;;;;;5030126;28;20225;-69
2024/02/10 09:44:49;;;;;;;2.37;2.10;;;13.80;99.90;;;;;;5028634;28;20431;-69
2024/02/10 09:47:16;;;;;;;2.83;1.80;;;13.90;99.90;;;;;;5030605;28;20448;-66
2024/02/10 09:49:42;;;;;;;2.37;2.17;;;14.00;99.90;;;;;;5031302;28;20789;-68
2024/02/10 09:52:09;;;;;;;2.63;1.70;;;14.00;99.90;;;;;;5030696;28;20524;-65
2024/02/10 09:54:36;;;;;;;2.30;2.10;;;14.10;99.90;;;;;;5030794;28;20428;-69
2024/02/10 09:57:07;;;;;;;1.70;1.60;;;14.00;99.90;;;;;;5029696;28;20927;-67
2024/02/10 09:59:33;;;;;;;2.60;1.93;;;14.00;99.90;;;;;;5030773;28;20817;-67
2024/02/10 10:01:59;;;;;;;1.87;1.60;;;14.20;99.90;;;;;;5030088;28;20634;-66
2024/02/10 10:04:25;;;;;;;2.27;1.90;;;14.20;99.90;;;;;;5031081;28;20236;-69
2024/02/10 10:06:51;;;;;;;1.60;1.50;;;14.20;99.90;;;;;;5030519;28;21119;-65
2024/02/10 10:09:18;;;;;;;3.47;1.70;;;14.40;99.90;;;;;;5030041;28;20413;-65
2024/02/10 10:11:45;;;;;;;2.13;1.93;;;14.50;99.90;;;;;;5031271;28;20657;-67
2024/02/10 10:14:19;;;;;;;1.87;1.77;;;14.60;99.90;;;;;;5030796;28;20428;-67
2024/02/10 10:16:58;;;;;;;3.63;2.10;;;14.80;99.90;;;;;;5030535;28;20457;-68
2024/02/10 10:19:26;;;;;;;1.93;1.73;;;14.70;99.90;;;;;;5030773;28;20433;-70
2024/02/10 10:21:55;;;;;;;2.10;1.87;;;14.70;99.90;;;;;;5028490;28;20464;-67
2024/02/10 10:24:22;;;;;;;1.90;1.80;;;14.90;99.90;;;;;;5031152;28;21375;-70
2024/02/10 10:26:54;;;;;;;2.40;1.83;;;14.70;99.90;;;;;;5029450;28;21236;-70
2024/02/10 10:29:20;;;;;;;2.07;1.90;;;15.00;99.90;;;;;;5030010;28;20439;-68
2024/02/10 10:31:48;;;;;;;1.70;1.60;;;15.10;99.90;;;;;;5030861;28;21119;-69
2024/02/10 10:34:18;;;;;;;1.63;1.53;;;15.10;99.90;;;;;;5034326;28;20521;-71
2024/02/10 10:36:48;;;;;;;1.97;1.87;;;15.20;99.90;;;;;;5034431;28;20487;-66
2024/02/10 10:39:14;;;;;;;1.97;1.80;;;15.50;99.90;;;;;;5034422;28;20440;-70
2024/02/10 10:41:42;;;;;;;1.70;1.60;;;15.90;99.90;;;;;;5034147;28;20459;-68
2024/02/10 10:44:09;;;;;;;2.10;1.50;;;16.30;99.90;;;;;;5034365;28;20428;-67
2024/02/10 10:46:35;;;;;;;1.77;1.63;;;16.60;99.90;;;;;;5034283;28;21016;-67
2024/02/10 10:49:01;;;;;;;2.13;1.97;;;16.70;99.90;;;;;;5034649;28;20433;-68
2024/02/10 10:51:33;;;;;;;2.40;1.60;;;16.40;99.90;;;;;;5034104;28;20181;-68
2024/02/10 10:54:03;;;;;;;1.80;1.70;;;16.10;99.90;;;;;;5033931;28;20941;-67
2024/02/10 10:56:31;;;;;;;2.03;1.73;;;15.90;99.90;;;;;;5033657;28;20440;-69
2024/02/10 10:59:01;;;;;;;1.27;1.17;;;15.80;99.90;;;;;;5033564;28;20436;-69
2024/02/10 11:01:29;;;;;;;2.30;1.83;;;15.70;99.90;;;;;;5033104;28;20471;-71
2024/02/10 11:03:59;;;;;;;2.00;1.53;;;15.30;99.90;;;;;;5034461;28;20433;-69
2024/02/10 11:06:28;;;;;;;2.03;1.93;;;15.20;99.90;;;;;;5033433;28;20437;-66
2024/02/10 11:08:54;;;;;;;1.53;1.40;;;15.30;99.90;;;;;;5034219;28;20424;-67
2024/02/10 11:11:20;;;;;;;2.07;1.37;;;15.20;99.90;;;;;;5033783;28;20432;-67
2024/02/10 11:13:46;;;;;;;1.60;1.50;;;15.20;99.90;;;;;;5034539;28;20451;-70
2024/02/10 11:16:12;;;;;;;2.23;1.80;;;14.70;99.90;;;;;;5034180;28;20429;-70
2024/02/10 11:18:39;;;;;;;1.90;1.40;;;14.60;99.90;;;;;;5034090;28;20178;-69
2024/02/10 11:21:08;;;;;;;2.80;1.40;;;14.60;99.90;;;;;;5033380;28;20555;-70
2024/02/10 11:23:34;;;;;;;1.87;1.77;;;14.40;99.90;;;;;;5033300;28;20425;-67
2024/02/10 11:25:59;;;;;;;2.70;1.30;;;14.40;99.90;;;;;;5033672;28;20436;-68
2024/02/10 11:28:26;;;;;;;1.53;1.40;;;14.50;99.90;;;;;;5032460;28;20186;-71
2024/02/10 11:30:53;;;;;;;1.50;1.30;;;14.60;99.90;;;;;;5033353;28;20179;-67
2024/02/10 11:33:23;;;;;;;1.47;1.37;;;14.70;99.90;;;;;;5033428;28;20432;-70
2024/02/10 11:35:52;;;;;;;3.00;1.57;;;14.80;99.90;;;;;;5032672;28;21096;-70
2024/02/10 11:38:19;;;;;;;1.37;1.27;;;14.70;99.90;;;;;;5032799;28;20442;-68
2024/02/10 11:40:45;;;;;;;1.87;1.40;;;14.60;99.90;;;;;;5032196;28;20808;-66
2024/02/10 11:43:14;;;;;;;1.67;1.57;;;14.60;99.90;;;;;;5032228;28;20432;-71
2024/02/10 11:45:41;;;;;;;1.40;1.30;;;14.60;99.90;;;;;;5033205;28;20918;-69
2024/02/10 11:48:11;;;;;;;1.37;1.27;;;14.50;99.90;;;;;;5033397;28;20457;-71
2024/02/10 11:50:45;;;;;;;1.43;1.33;;;14.60;99.90;;;;;;5033104;28;21177;-68
2024/02/10 11:53:19;;;;;;;1.70;1.60;;;14.30;99.90;;;;;;5033499;28;20592;-71
2024/02/10 11:55:47;;;;;;;1.83;1.50;;;14.30;99.90;;;;;;5032918;28;20991;-69
2024/02/10 11:58:18;;;;;;;2.97;1.43;;;14.30;99.90;;;;;;5031991;28;20907;-71
2024/02/10 12:00:47;;;;;;;1.57;1.43;;;14.30;99.90;;;;;;5032955;28;20429;-71
2024/02/10 12:03:15;;;;;;;1.50;1.40;;;14.30;99.90;;;;;;5033364;28;21783;-69
2024/02/10 12:05:42;;;;;;;1.50;1.40;;;14.20;99.90;;;;;;5033828;28;20435;-70
2024/02/10 12:08:09;;;;;;;1.60;1.50;;;14.30;99.90;;;;;;5031392;28;21339;-68
2024/02/10 12:10:39;;;;;;;1.60;1.50;;;14.40;99.90;;;;;;5033393;28;20426;-72
2024/02/10 12:13:09;;;;;;;1.30;1.20;;;14.50;99.90;;;;;;5047954;28;20455;-70
2024/02/10 12:15:35;;;;;;;3.67;1.60;;;14.50;99.90;;;;;;5032753;28;20433;-68
2024/02/10 12:18:01;;;;;;;1.93;1.37;;;14.30;99.90;;;;;;5033367;28;20428;-68
2024/02/10 12:20:29;;;;;;;1.47;1.37;;;14.50;99.90;;;;;;5032269;28;20425;-70
2024/02/10 12:22:55;;;;;;;1.50;1.27;;;14.60;99.90;;;;;;5033435;28;20496;-72
2024/02/10 12:25:22;;;;;;;1.47;1.30;;;14.60;99.90;;;;;;5032481;28;20420;-72
2024/02/10 12:27:51;;;;;;;1.30;1.20;;;14.80;99.90;;;;;;5031127;28;20831;-69
2024/02/10 12:30:18;;;;;;;1.80;1.27;;;14.90;99.90;;;;;;5031400;28;21140;-73
2024/02/10 12:32:44;;;;;;;1.37;1.27;;;15.00;99.90;;;;;;5024840;28;20530;-70
2024/02/10 12:35:16;;;;;;;1.50;1.40;;;15.00;99.90;;;;;;5031786;28;20440;-68
2024/02/10 12:37:46;;;;;;;1.23;1.10;;;15.10;99.90;;;;;;5031621;28;20429;-71
2024/02/10 12:40:13;;;;;;;1.37;1.10;;;15.10;99.90;;;;;;5030039;28;20498;-71
2024/02/10 12:42:42;;;;;;;1.30;1.20;;;15.10;99.90;;;;;;5030606;28;20469;-72
2024/02/10 12:45:18;;;;;;;2.00;1.10;;;15.20;99.90;;;;;;5031143;28;20446;-71
2024/02/10 12:47:45;;;;;;;1.43;1.00;;;15.10;99.90;;;;;;5030342;28;20440;-68
2024/02/10 12:50:12;;;;;;;1.20;1.10;;;15.10;99.90;;;;;;5030503;28;20440;-66